East Williamson, New York
Current Conditions -  °F | °C
As of 8:19 PM on Wednesday 26 Nov 2014 (Local Time) from KROC Reporting Station
Light Snow Light Snow  
Wind Chill: 23°   Ceiling: 2100
Heat Index: 31°   Visibility: 2.5mi
Dew Point: 28°   Wind: 9mph
Humidity: 89%   Direction: 50°NE
Pressure: 30.05"   Gusts: NA
Location:  43.23°N, 77.15°W
Report Text: KROC 270119Z 05008KT 2 1/2SM -SN BR FEW009 BKN021 OVC033 M01/M02 A3005 RMK AO2 P0000 T10061022
Loading
Personal Weather Stations






























Interactive Weather Map New forecast layout! Learn more

10-Day Weather Forecast

Advertisements
Track Severe Weather on mobile